createdAt,value
2023-04-15T00:01:41.950Z,86128.50
2023-04-15T00:04:09.210Z,86121.81
2023-04-15T00:06:37.839Z,86129.25
2023-04-15T00:09:05.385Z,86127.38
2023-04-15T00:11:32.603Z,86123.25
2023-04-15T00:13:59.799Z,86124.38
2023-04-15T00:16:27.136Z,86123.63
2023-04-15T00:18:54.462Z,86120.28
2023-04-15T00:21:21.920Z,86125.84
2023-04-15T00:23:49.038Z,86115.78
2023-04-15T00:26:16.253Z,86114.66
2023-04-15T00:28:43.572Z,86112.78
2023-04-15T00:31:11.098Z,86107.22
2023-04-15T00:33:38.578Z,86106.09
2023-04-15T00:36:07.725Z,86114.28
2023-04-15T00:38:34.954Z,86108.69
2023-04-15T00:41:03.702Z,86106.81
2023-04-15T00:43:30.917Z,86114.66
2023-04-15T00:46:01.124Z,86113.91
2023-04-15T00:48:29.165Z,86104.97
2023-04-15T00:50:56.333Z,86100.84
2023-04-15T00:53:23.815Z,86106.06
2023-04-15T00:55:51.227Z,86106.09
2023-04-15T00:58:19.407Z,86111.31
2023-04-15T01:00:47.231Z,86112.41
2023-04-15T01:03:14.608Z,86107.91
2023-04-15T01:05:41.902Z,86110.19
2023-04-15T01:08:09.117Z,86097.47
2023-04-15T01:10:36.665Z,86104.19
2023-04-15T01:13:04.402Z,86104.19
2023-04-15T01:15:31.803Z,86099.38
2023-04-15T01:18:00.208Z,86097.47
2023-04-15T01:20:28.935Z,86103.06
2023-04-15T01:22:56.679Z,86107.19
2023-04-15T01:25:34.303Z,86100.47
2023-04-15T01:28:02.089Z,86099.72
2023-04-15T01:30:29.544Z,86099.34
2023-04-15T01:32:56.805Z,86103.44
2023-04-15T01:35:24.325Z,86101.19
2023-04-15T01:37:51.971Z,86099.72
2023-04-15T01:40:19.421Z,86093.75
2023-04-15T01:42:46.932Z,86095.97
2023-04-15T01:45:14.195Z,86095.97
2023-04-15T01:47:41.686Z,86096.72
2023-04-15T01:50:09.577Z,86090.00
2023-04-15T01:52:36.797Z,86104.91
2023-04-15T01:55:04.462Z,86092.97
2023-04-15T01:57:31.678Z,86098.94
2023-04-15T01:59:58.890Z,86105.66
2023-04-15T02:02:26.183Z,86103.44
2023-04-15T02:04:53.341Z,86102.69
2023-04-15T02:07:20.567Z,86106.03
2023-04-15T02:09:47.898Z,86102.69
2023-04-15T02:12:15.093Z,86112.75
2023-04-15T02:14:42.284Z,86103.06
2023-04-15T02:17:09.538Z,86104.56
2023-04-15T02:19:36.838Z,86108.31
2023-04-15T02:22:04.516Z,86103.44
2023-04-15T02:24:32.067Z,86106.78
2023-04-15T02:26:59.424Z,86104.19
2023-04-15T02:29:26.782Z,86110.91
2023-04-15T02:31:54.150Z,86110.16
2023-04-15T02:34:21.509Z,86100.84
2023-04-15T02:36:48.727Z,86107.19
2023-04-15T02:39:15.933Z,86096.00
2023-04-15T02:41:43.504Z,86095.25
2023-04-15T02:44:11.452Z,86098.97
2023-04-15T02:46:38.779Z,86098.59
2023-04-15T02:49:06.237Z,86093.00
2023-04-15T02:51:33.472Z,86086.66
2023-04-15T02:54:00.627Z,86087.03
2023-04-15T02:56:27.996Z,86085.19
2023-04-15T02:58:55.293Z,86085.91
2023-04-15T03:01:22.542Z,86086.31
2023-04-15T03:03:49.923Z,86086.31
2023-04-15T03:06:17.238Z,86086.66
2023-04-15T03:08:44.433Z,86090.03
2023-04-15T03:11:11.665Z,86081.78
2023-04-15T03:13:38.988Z,86083.28
2023-04-15T03:16:06.990Z,86085.53
2023-04-15T03:18:34.318Z,86085.53
2023-04-15T03:21:01.689Z,86089.25
2023-04-15T03:23:29.179Z,86081.03
2023-04-15T03:25:56.386Z,86085.50
2023-04-15T03:28:24.279Z,86083.28
2023-04-15T03:30:51.504Z,86093.72
2023-04-15T03:33:18.732Z,86087.38
2023-04-15T03:35:46.039Z,86092.22
2023-04-15T03:38:13.264Z,86090.38
2023-04-15T03:40:44.426Z,86091.47
2023-04-15T03:43:11.743Z,86098.94
2023-04-15T03:45:39.161Z,86094.47
2023-04-15T03:48:16.466Z,86094.44
2023-04-15T03:50:44.858Z,86097.44
2023-04-15T03:53:12.231Z,86097.44
2023-04-15T03:55:39.488Z,86095.94
2023-04-15T03:58:06.712Z,86101.53
2023-04-15T04:00:33.937Z,86091.84
2023-04-15T04:03:01.279Z,86094.09
2023-04-15T04:05:29.060Z,86091.50
2023-04-15T04:07:56.567Z,86096.69
2023-04-15T04:10:23.806Z,86091.47
2023-04-15T04:12:51.162Z,86091.47
2023-04-15T04:15:18.480Z,86090.72
2023-04-15T04:17:45.993Z,86091.84
2023-04-15T04:20:13.425Z,86099.31
2023-04-15T04:22:41.335Z,86088.88
2023-04-15T04:25:09.920Z,86095.97
2023-04-15T04:27:37.513Z,86092.22
2023-04-15T04:30:06.479Z,86100.06
2023-04-15T04:32:33.746Z,86101.19
2023-04-15T04:35:00.950Z,86100.81
2023-04-15T04:37:28.211Z,86104.56
2023-04-15T04:39:55.432Z,86100.44
2023-04-15T04:42:23.086Z,86108.66
2023-04-15T04:44:50.385Z,86112.72
2023-04-15T04:47:17.679Z,86101.53
2023-04-15T04:49:45.063Z,86108.25
2023-04-15T04:52:12.638Z,86103.41
2023-04-15T04:54:39.813Z,86104.53
2023-04-15T04:57:07.005Z,86107.91
2023-04-15T04:59:34.484Z,86109.75
2023-04-15T05:02:01.942Z,86107.16
2023-04-15T05:04:29.215Z,86110.13
2023-04-15T05:06:56.412Z,86106.75
2023-04-15T05:09:23.766Z,86109.38
2023-04-15T05:11:50.946Z,86105.63
2023-04-15T05:14:18.201Z,86104.50
2023-04-15T05:16:45.552Z,86109.38
2023-04-15T05:19:12.720Z,86107.91
2023-04-15T05:21:40.024Z,86115.34
2023-04-15T05:24:07.331Z,86119.06
2023-04-15T05:26:34.516Z,86114.22
2023-04-15T05:29:02.156Z,86115.31
2023-04-15T05:31:30.061Z,86123.16
2023-04-15T05:33:57.422Z,86119.06
2023-04-15T05:36:24.781Z,86120.56
2023-04-15T05:38:54.334Z,86122.81
2023-04-15T05:41:21.833Z,86122.81
2023-04-15T05:43:49.070Z,86126.91
2023-04-15T05:46:16.510Z,86132.50
2023-04-15T05:48:43.716Z,86122.81
2023-04-15T05:51:11.110Z,86128.06
2023-04-15T05:53:38.454Z,86122.84
2023-04-15T05:56:05.800Z,86127.31
2023-04-15T05:58:33.112Z,86126.94
2023-04-15T06:01:00.506Z,86129.19
2023-04-15T06:03:27.809Z,86128.06
2023-04-15T06:05:55.256Z,86132.56
2023-04-15T06:08:22.568Z,86127.34
2023-04-15T06:10:49.852Z,86135.94
2023-04-15T06:13:17.476Z,86132.59
2023-04-15T06:15:44.846Z,86135.22
2023-04-15T06:18:12.304Z,86134.09
2023-04-15T06:20:41.963Z,86124.41
2023-04-15T06:23:09.485Z,86130.38
2023-04-15T06:25:36.715Z,86139.00
2023-04-15T06:28:04.280Z,86133.00
2023-04-15T06:30:31.908Z,86140.88
2023-04-15T06:32:59.285Z,86145.38
2023-04-15T06:35:28.177Z,86137.91
2023-04-15T06:37:55.398Z,86140.88
2023-04-15T06:40:22.753Z,86146.50
2023-04-15T06:42:50.004Z,86143.91
2023-04-15T06:45:17.347Z,86149.13
2023-04-15T06:47:45.810Z,86144.63
2023-04-15T06:50:12.994Z,86143.91
2023-04-15T06:52:40.484Z,86146.91
2023-04-15T06:55:08.421Z,86143.16
2023-04-15T06:57:35.745Z,86152.13
2023-04-15T07:00:03.756Z,86145.41
2023-04-15T07:02:31.522Z,86148.81
2023-04-15T07:05:02.463Z,86148.44
2023-04-15T07:07:31.279Z,86142.09
2023-04-15T07:09:59.804Z,86140.97
2023-04-15T07:12:26.952Z,86141.72
2023-04-15T07:14:54.126Z,86149.56
2023-04-15T07:17:22.379Z,86145.84
2023-04-15T07:19:49.656Z,86151.44
2023-04-15T07:22:17.057Z,86148.81
2023-04-15T07:24:44.758Z,86151.06
2023-04-15T07:27:12.378Z,86155.16
2023-04-15T07:29:39.536Z,86158.91
2023-04-15T07:32:06.775Z,86149.19
2023-04-15T07:34:34.068Z,86152.19
2023-04-15T07:37:01.269Z,86149.19
2023-04-15T07:39:28.420Z,86155.16
2023-04-15T07:41:55.804Z,86153.66
2023-04-15T07:44:23.126Z,86153.66
2023-04-15T07:46:50.331Z,86150.31
2023-04-15T07:49:17.569Z,86154.41
2023-04-15T07:51:44.862Z,86160.41
2023-04-15T07:54:12.018Z,86150.31
2023-04-15T07:56:39.180Z,86147.31
2023-04-15T07:59:06.403Z,86158.53
2023-04-15T08:01:33.734Z,86158.53
2023-04-15T08:04:01.235Z,86157.41
2023-04-15T08:06:28.514Z,86161.16
2023-04-15T08:08:55.804Z,86158.53
2023-04-15T08:11:23.144Z,86165.66
2023-04-15T08:13:50.524Z,86155.91
2023-04-15T08:16:23.761Z,86154.03
2023-04-15T08:18:53.981Z,86160.03
2023-04-15T08:21:21.550Z,86152.94
2023-04-15T08:23:51.525Z,86149.56
2023-04-15T08:26:20.767Z,86160.03
2023-04-15T08:28:49.223Z,86158.53
2023-04-15T08:31:18.561Z,86161.88
2023-04-15T08:33:46.785Z,86155.53
2023-04-15T08:36:14.048Z,86160.75
2023-04-15T08:38:41.306Z,86152.91
2023-04-15T08:41:25.384Z,86157.75
2023-04-15T08:44:06.793Z,86156.25
2023-04-15T08:46:34.139Z,86161.84
2023-04-15T08:49:05.132Z,86163.31
2023-04-15T08:51:33.020Z,86165.94
2023-04-15T08:54:02.074Z,86166.28
2023-04-15T08:56:33.045Z,86165.16
2023-04-15T08:59:01.402Z,86167.34
2023-04-15T09:01:29.629Z,86167.69
2023-04-15T09:03:59.043Z,86160.94
2023-04-15T09:06:26.852Z,86167.69
2023-04-15T09:08:54.188Z,86164.66
2023-04-15T09:11:22.905Z,86170.59
2023-04-15T09:13:50.750Z,86164.69
2023-04-15T09:16:18.113Z,86162.41
2023-04-15T09:18:45.518Z,86167.63
2023-04-15T09:21:16.514Z,86169.06
2023-04-15T09:24:01.705Z,86177.00
2023-04-15T09:26:39.147Z,86176.59
2023-04-15T09:29:12.912Z,86176.59
2023-04-15T09:31:41.498Z,86172.09
2023-04-15T09:34:09.218Z,86173.56
2023-04-15T09:36:55.212Z,86171.25
2023-04-15T09:39:22.554Z,86172.34
2023-04-15T09:42:08.778Z,86168.97
2023-04-15T09:44:36.100Z,86170.47
2023-04-15T09:47:03.305Z,86172.72
2023-04-15T09:49:30.521Z,86168.94
2023-04-15T09:52:06.147Z,86168.94
2023-04-15T09:54:38.709Z,86164.41
2023-04-15T09:57:09.705Z,86168.06
2023-04-15T09:59:36.887Z,86172.56
2023-04-15T10:02:07.434Z,86168.13
2023-04-15T10:04:40.512Z,86176.63
2023-04-15T10:07:09.595Z,86175.13
2023-04-15T10:09:39.461Z,86172.03
2023-04-15T10:12:06.960Z,86173.94
2023-04-15T10:14:38.575Z,86169.34
2023-04-15T10:17:07.976Z,86174.94
2023-04-15T10:19:38.430Z,86164.69
2023-04-15T10:22:07.010Z,86167.91
2023-04-15T10:24:35.081Z,86164.44
2023-04-15T10:27:05.223Z,86166.03
2023-04-15T10:29:32.848Z,86165.56
2023-04-15T10:32:01.672Z,86168.94
2023-04-15T10:34:31.876Z,86165.91
2023-04-15T10:37:02.985Z,86159.47
2023-04-15T10:39:38.048Z,86161.66
2023-04-15T10:42:14.421Z,86165.03
2023-04-15T10:44:50.931Z,86167.34
2023-04-15T10:47:21.481Z,86169.31
2023-04-15T10:49:58.132Z,86168.53
2023-04-15T10:52:28.539Z,86167.78
2023-04-15T10:55:10.815Z,86171.97
2023-04-15T10:57:42.919Z,86171.88
2023-04-15T11:00:18.872Z,86179.16
2023-04-15T11:02:59.304Z,86170.88
2023-04-15T11:05:53.009Z,86169.06
2023-04-15T11:08:40.939Z,86167.06
2023-04-15T11:11:08.395Z,86167.47
2023-04-15T11:13:35.704Z,86165.56
2023-04-15T11:16:03.945Z,86173.03
2023-04-15T11:18:33.840Z,86166.63
2023-04-15T11:21:04.858Z,86170.53
2023-04-15T11:23:43.370Z,86171.09
2023-04-15T11:26:11.535Z,86165.50
2023-04-15T11:28:44.653Z,86167.38
2023-04-15T11:31:17.219Z,86170.66
2023-04-15T11:33:56.705Z,86171.81
2023-04-15T11:36:30.107Z,86174.38
2023-04-15T11:38:59.626Z,86165.38
2023-04-15T11:41:27.201Z,86162.41
2023-04-15T11:43:54.593Z,86163.44
2023-04-15T11:46:29.138Z,86164.16
2023-04-15T11:48:56.349Z,86164.09
2023-04-15T11:51:23.973Z,86167.81
2023-04-15T11:53:51.711Z,86172.66
2023-04-15T11:56:22.142Z,86177.22
2023-04-15T11:58:55.715Z,86173.06
2023-04-15T12:01:41.417Z,86171.91
2023-04-15T12:04:18.665Z,86173.69
2023-04-15T12:06:47.474Z,86175.13
2023-04-15T12:09:18.773Z,86178.81
2023-04-15T12:11:52.917Z,86175.78
2023-04-15T12:14:29.799Z,86184.06
2023-04-15T12:17:04.387Z,86184.84
2023-04-15T12:19:40.417Z,86184.91
2023-04-15T12:22:11.526Z,86190.91
2023-04-15T12:24:40.275Z,86185.44
2023-04-15T12:27:11.486Z,86198.09
2023-04-15T12:29:41.380Z,86186.56
2023-04-15T12:32:10.937Z,86184.56
2023-04-15T12:34:44.766Z,86193.53
2023-04-15T12:37:13.131Z,86193.88
2023-04-15T12:39:43.158Z,86194.56
2023-04-15T12:42:12.148Z,86198.44
2023-04-15T12:44:40.321Z,86201.78
2023-04-15T12:47:10.060Z,86199.50
2023-04-15T12:49:39.919Z,86204.69
2023-04-15T12:52:07.650Z,86202.56
2023-04-15T12:54:34.953Z,86210.00
2023-04-15T12:57:07.441Z,86208.31
2023-04-15T12:59:36.068Z,86206.31
2023-04-15T13:02:04.342Z,86212.34
2023-04-15T13:04:31.891Z,86216.44
2023-04-15T13:06:59.449Z,86222.88
2023-04-15T13:09:26.860Z,86217.00
2023-04-15T13:11:54.621Z,86220.97
2023-04-15T13:14:22.050Z,86213.75
2023-04-15T13:16:49.442Z,86212.22
2023-04-15T13:19:16.760Z,86218.59
2023-04-15T13:21:44.129Z,86224.13
2023-04-15T13:24:11.372Z,86222.41
2023-04-15T13:26:38.620Z,86219.41
2023-04-15T13:29:05.909Z,86226.63
2023-04-15T13:31:33.304Z,86235.34
2023-04-15T13:34:00.876Z,86228.84
2023-04-15T13:36:28.359Z,86227.38
2023-04-15T13:38:55.642Z,86232.56
2023-04-15T13:41:22.946Z,86224.50
2023-04-15T13:43:50.182Z,86225.13
2023-04-15T13:46:17.557Z,86232.31
2023-04-15T13:48:44.999Z,86230.31
2023-04-15T13:51:12.197Z,86229.69
2023-04-15T13:53:39.850Z,86230.38
2023-04-15T13:56:10.693Z,86223.13
2023-04-15T13:58:38.530Z,86224.22
2023-04-15T14:01:07.417Z,86226.66
2023-04-15T14:03:36.175Z,86234.78
2023-04-15T14:06:05.251Z,86219.00
2023-04-15T14:08:33.517Z,86221.75
2023-04-15T14:11:00.906Z,86232.59
2023-04-15T14:13:28.354Z,86226.22
2023-04-15T14:15:57.496Z,86231.91
2023-04-15T14:18:24.901Z,86232.66
2023-04-15T14:20:52.168Z,86226.81
2023-04-15T14:23:19.706Z,86227.47
2023-04-15T14:25:48.288Z,86235.56
2023-04-15T14:28:16.592Z,86225.59
2023-04-15T14:30:44.034Z,86228.84
2023-04-15T14:33:11.464Z,86226.72
2023-04-15T14:35:39.367Z,86228.38
2023-04-15T14:38:06.560Z,86231.94
2023-04-15T14:40:34.224Z,86223.34
2023-04-15T14:43:01.570Z,86231.38
2023-04-15T14:45:30.508Z,86223.25
2023-04-15T14:47:58.868Z,86235.72
2023-04-15T14:50:26.348Z,86235.41
2023-04-15T14:52:53.799Z,86243.63
2023-04-15T14:55:20.954Z,86242.47
2023-04-15T14:57:48.337Z,86244.13
2023-04-15T15:00:16.452Z,86245.31
2023-04-15T15:02:44.115Z,86250.19
2023-04-15T15:05:12.150Z,86246.56
2023-04-15T15:07:40.196Z,86255.66
2023-04-15T15:10:09.091Z,86248.53
2023-04-15T15:12:36.428Z,86257.59
2023-04-15T15:15:12.162Z,86250.38
2023-04-15T15:17:43.566Z,86251.91
2023-04-15T15:20:11.260Z,86263.97
2023-04-15T15:22:38.643Z,86263.25
2023-04-15T15:25:06.449Z,86263.69
2023-04-15T15:27:33.798Z,86267.47
2023-04-15T15:30:01.505Z,86274.69
2023-04-15T15:32:29.137Z,86272.38
2023-04-15T15:34:56.584Z,86273.88
2023-04-15T15:37:23.942Z,86281.19
2023-04-15T15:39:53.632Z,86286.50
2023-04-15T15:42:20.886Z,86287.28
2023-04-15T15:44:48.128Z,86289.44
2023-04-15T15:47:21.269Z,86289.34
2023-04-15T15:49:48.844Z,86288.09
2023-04-15T15:52:16.290Z,86304.91
2023-04-15T15:54:43.626Z,86297.66
2023-04-15T15:57:11.430Z,86292.91
2023-04-15T15:59:38.699Z,86299.03
2023-04-15T16:02:06.057Z,86296.03
2023-04-15T16:04:33.513Z,86301.38
2023-04-15T16:07:00.910Z,86303.66
2023-04-15T16:09:28.269Z,86310.44
2023-04-15T16:11:55.621Z,86312.09
2023-04-15T16:14:24.582Z,86306.94
2023-04-15T16:16:53.323Z,86305.97
2023-04-15T16:19:21.657Z,86303.00
2023-04-15T16:21:49.313Z,86313.97
2023-04-15T16:24:16.667Z,86319.69
2023-04-15T16:26:43.839Z,86323.94
2023-04-15T16:29:11.197Z,86328.06
2023-04-15T16:31:38.601Z,86322.47
2023-04-15T16:34:06.508Z,86325.53
2023-04-15T16:36:36.733Z,86331.50
2023-04-15T16:39:04.397Z,86336.41
2023-04-15T16:41:34.308Z,86334.19
2023-04-15T16:44:02.315Z,86335.34
2023-04-15T16:46:29.746Z,86343.59
2023-04-15T16:48:57.379Z,86339.88
2023-04-15T16:51:24.659Z,86345.91
2023-04-15T16:53:51.883Z,86349.69
2023-04-15T16:56:19.793Z,86354.97
2023-04-15T16:58:47.137Z,86358.03
2023-04-15T17:01:14.743Z,86366.31
2023-04-15T17:03:42.214Z,86362.63
2023-04-15T17:06:10.201Z,86359.25
2023-04-15T17:08:37.933Z,86365.31
2023-04-15T17:11:05.796Z,86374.66
2023-04-15T17:13:33.094Z,86379.16
2023-04-15T17:16:01.071Z,86381.41
2023-04-15T17:18:29.167Z,86388.88
2023-04-15T17:20:57.215Z,86387.00
2023-04-15T17:23:25.854Z,86390.38
2023-04-15T17:25:53.826Z,86396.00
2023-04-15T17:28:21.658Z,86397.19
2023-04-15T17:30:49.148Z,86394.97
2023-04-15T17:33:54.049Z,86405.84
2023-04-15T17:36:04.679Z,86414.50
2023-04-15T17:38:32.603Z,86406.28
2023-04-15T17:41:00.408Z,86413.81
2023-04-15T17:43:27.725Z,86424.28
2023-04-15T17:45:56.199Z,86426.25
2023-04-15T17:48:26.226Z,86429.63
2023-04-15T17:50:53.885Z,86443.88
2023-04-15T17:53:21.366Z,86449.84
2023-04-15T17:55:48.670Z,86451.72
2023-04-15T17:58:15.874Z,86454.00
2023-04-15T18:00:43.218Z,86464.16
2023-04-15T18:03:10.694Z,86464.13
2023-04-15T18:05:40.323Z,86477.28
2023-04-15T18:08:09.960Z,86476.53
2023-04-15T18:10:40.006Z,86470.50
2023-04-15T18:13:07.376Z,86484.38
2023-04-15T18:15:35.318Z,86482.16
2023-04-15T18:18:03.506Z,86488.53
2023-04-15T18:20:30.994Z,86488.91
2023-04-15T18:22:58.263Z,86486.66
2023-04-15T18:25:26.235Z,86497.16
2023-04-15T18:27:55.586Z,86494.16
2023-04-15T18:30:23.121Z,86502.41
2023-04-15T18:32:50.485Z,86500.91
2023-04-15T18:35:17.767Z,86509.16
2023-04-15T18:37:45.097Z,86508.41
2023-04-15T18:40:12.403Z,86520.75
2023-04-15T18:42:39.834Z,86522.25
2023-04-15T18:45:07.849Z,86523.34
2023-04-15T18:47:35.264Z,86531.59
2023-04-15T18:50:02.740Z,86534.59
2023-04-15T18:52:30.658Z,86541.28
2023-04-15T18:54:58.205Z,86548.41
2023-04-15T18:57:31.075Z,86546.16
2023-04-15T19:00:02.714Z,86554.00
2023-04-15T19:02:30.073Z,86554.75
2023-04-15T19:04:57.390Z,86540.91
2023-04-15T19:07:24.915Z,86557.69
2023-04-15T19:09:53.239Z,86565.56
2023-04-15T19:12:20.454Z,86558.09
2023-04-15T19:14:47.847Z,86567.44
2023-04-15T19:17:15.476Z,86572.25
2023-04-15T19:19:42.921Z,86574.13
2023-04-15T19:22:10.448Z,86576.75
2023-04-15T19:24:37.802Z,86582.31
2023-04-15T19:27:05.042Z,86584.56
2023-04-15T19:29:32.874Z,86584.56
2023-04-15T19:32:00.255Z,86588.31
2023-04-15T19:34:27.600Z,86582.31
2023-04-15T19:36:54.877Z,86592.41
2023-04-15T19:39:22.176Z,86595.38
2023-04-15T19:41:49.397Z,86596.09
2023-04-15T19:44:16.836Z,86596.44
2023-04-15T19:46:44.095Z,86601.63
2023-04-15T19:49:11.704Z,86603.09
2023-04-15T19:51:38.961Z,86613.91
2023-04-15T19:54:06.489Z,86609.78
2023-04-15T19:56:34.550Z,86620.56
2023-04-15T19:59:02.289Z,86620.56
2023-04-15T20:01:29.692Z,86620.13
2023-04-15T20:03:57.295Z,86626.84
2023-04-15T20:06:24.786Z,86625.69
2023-04-15T20:08:52.446Z,86628.25
2023-04-15T20:11:19.896Z,86631.25
2023-04-15T20:13:47.100Z,86628.56
2023-04-15T20:16:14.532Z,86637.91
2023-04-15T20:18:42.817Z,86627.34
2023-04-15T20:21:10.689Z,86633.28
2023-04-15T20:23:38.112Z,86638.88
2023-04-15T20:26:05.387Z,86632.84
2023-04-15T20:28:32.920Z,86642.09
2023-04-15T20:31:03.726Z,86641.69
2023-04-15T20:33:31.094Z,86648.78
2023-04-15T20:35:58.606Z,86647.25
2023-04-15T20:38:25.895Z,86641.97
2023-04-15T20:40:53.239Z,86649.75
2023-04-15T20:43:20.659Z,86661.28
2023-04-15T20:45:49.185Z,86646.63
2023-04-15T20:48:16.480Z,86658.16
2023-04-15T20:50:43.645Z,86666.31
2023-04-15T20:53:10.899Z,86670.06
2023-04-15T20:55:38.305Z,86667.78
2023-04-15T20:58:05.535Z,86660.25
2023-04-15T21:00:32.990Z,86668.44
2023-04-15T21:03:00.476Z,86668.44
2023-04-15T21:05:27.940Z,86676.66
2023-04-15T21:07:55.392Z,86674.34
2023-04-15T21:10:22.839Z,86677.63
2023-04-15T21:12:50.097Z,86676.13
2023-04-15T21:15:17.694Z,86681.97
2023-04-15T21:17:44.944Z,86684.22
2023-04-15T21:20:12.673Z,86686.81
2023-04-15T21:22:39.953Z,86686.75
2023-04-15T21:25:07.833Z,86685.56
2023-04-15T21:27:35.445Z,86688.16
2023-04-15T21:30:03.774Z,86696.31
2023-04-15T21:32:31.213Z,86694.72
2023-04-15T21:34:58.429Z,86693.50
2023-04-15T21:37:25.658Z,86692.41
2023-04-15T21:39:52.936Z,86700.63
2023-04-15T21:42:20.213Z,86699.09
2023-04-15T21:44:47.378Z,86708.41
2023-04-15T21:47:14.721Z,86711.72
2023-04-15T21:49:42.154Z,86707.16
2023-04-15T21:52:10.237Z,86715.28
2023-04-15T21:54:37.900Z,86716.63
2023-04-15T21:57:05.227Z,86717.44
2023-04-15T21:59:32.401Z,86717.00
2023-04-15T22:02:00.143Z,86711.31
2023-04-15T22:04:27.876Z,86716.50
2023-04-15T22:06:55.385Z,86710.88
2023-04-15T22:09:22.998Z,86717.94
2023-04-15T22:11:50.551Z,86715.31
2023-04-15T22:14:17.750Z,86711.97
2023-04-15T22:16:45.120Z,86714.84
2023-04-15T22:19:12.470Z,86716.31
2023-04-15T22:21:39.701Z,86720.69
2023-04-15T22:24:32.074Z,86717.66
2023-04-15T22:26:54.426Z,86721.75
2023-04-15T22:29:22.358Z,86725.88
2023-04-15T22:31:49.559Z,86728.78
2023-04-15T22:34:17.024Z,86731.00
2023-04-15T22:36:44.295Z,86733.25
2023-04-15T22:39:11.460Z,86730.22
2023-04-15T22:41:38.654Z,86736.13
2023-04-15T22:44:05.876Z,86734.25
2023-04-15T22:46:33.537Z,86737.16
2023-04-15T22:49:00.924Z,86734.53
2023-04-15T22:51:28.566Z,86744.94
2023-04-15T22:53:56.331Z,86739.72
2023-04-15T22:56:23.802Z,86742.63
2023-04-15T22:58:52.083Z,86744.81
2023-04-15T23:01:19.617Z,86737.38
2023-04-15T23:03:56.242Z,86744.78
2023-04-15T23:06:30.362Z,86739.09
2023-04-15T23:08:57.590Z,86739.13
2023-04-15T23:11:24.957Z,86744.69
2023-04-15T23:13:52.355Z,86743.88
2023-04-15T23:16:19.609Z,86744.56
2023-04-15T23:18:46.829Z,86738.56
2023-04-15T23:21:14.297Z,86743.09
2023-04-15T23:23:41.472Z,86754.19
2023-04-15T23:26:09.365Z,86746.00
2023-04-15T23:28:36.510Z,86746.00
2023-04-15T23:31:03.813Z,86744.16
2023-04-15T23:33:31.109Z,86744.53
2023-04-15T23:35:58.442Z,86744.41
2023-04-15T23:38:25.641Z,86733.28
2023-04-15T23:40:52.987Z,86746.31
2023-04-15T23:43:20.520Z,86749.53
2023-04-15T23:45:47.969Z,86756.19
2023-04-15T23:48:15.227Z,86756.19
2023-04-15T23:50:42.430Z,86746.47
2023-04-15T23:53:09.684Z,86745.72
2023-04-15T23:55:36.908Z,86746.06
2023-04-15T23:58:04.104Z,86749.34
